sensor_id;sensor_type;location;lat;lon;timestamp;pressure;altitude;pressure_sealevel;temperature;humidity
74913;BME280;63878;55.624;37.304;2023-05-07T00:05:45;100019.69;;;-3.28;56.27
74913;BME280;63878;55.624;37.304;2023-05-07T00:15:45;100031.19;;;-3.47;57.05
74913;BME280;63878;55.624;37.304;2023-05-07T00:25:46;100031.22;;;-3.49;57.60
74913;BME280;63878;55.624;37.304;2023-05-07T00:35:47;100030.47;;;-3.55;57.69
74913;BME280;63878;55.624;37.304;2023-05-07T00:45:48;100038.59;;;-3.78;58.36
74913;BME280;63878;55.624;37.304;2023-05-07T00:55:48;100034.44;;;-3.88;58.54
74913;BME280;63878;55.624;37.304;2023-05-07T01:05:50;100033.44;;;-3.78;58.69
74913;BME280;63878;55.624;37.304;2023-05-07T01:15:51;100042.09;;;-3.84;58.77
74913;BME280;63878;55.624;37.304;2023-05-07T01:25:53;100045.63;;;-3.89;59.05
74913;BME280;63878;55.624;37.304;2023-05-07T01:35:53;100052.31;;;-3.76;58.28
74913;BME280;63878;55.624;37.304;2023-05-07T01:45:55;100065.25;;;-3.79;58.72
74913;BME280;63878;55.624;37.304;2023-05-07T01:55:57;100084.34;;;-3.91;59.32
74913;BME280;63878;55.624;37.304;2023-05-07T02:05:58;100084.25;;;-3.85;59.02
74913;BME280;63878;55.624;37.304;2023-05-07T02:15:58;100090.44;;;-3.97;59.22
74913;BME280;63878;55.624;37.304;2023-05-07T02:25:59;100100.72;;;-3.95;59.92
74913;BME280;63878;55.624;37.304;2023-05-07T02:36:09;100099.31;;;-3.57;58.49
74913;BME280;63878;55.624;37.304;2023-05-07T02:46:10;100115.50;;;-2.92;56.39
74913;BME280;63878;55.624;37.304;2023-05-07T02:56:10;100081.50;;;-2.71;54.45
74913;BME280;63878;55.624;37.304;2023-05-07T03:06:11;100124.72;;;-1.91;52.69
74913;BME280;63878;55.624;37.304;2023-05-07T03:16:11;100127.41;;;-1.57;52.03
74913;BME280;63878;55.624;37.304;2023-05-07T03:26:12;100135.22;;;-1.23;50.98
74913;BME280;63878;55.624;37.304;2023-05-07T03:36:13;100161.56;;;-0.70;49.83
74913;BME280;63878;55.624;37.304;2023-05-07T03:46:13;100165.69;;;-0.30;48.76
74913;BME280;63878;55.624;37.304;2023-05-07T03:56:14;100174.69;;;-0.11;47.66
74913;BME280;63878;55.624;37.304;2023-05-07T04:06:16;100178.63;;;0.32;46.56
74913;BME280;63878;55.624;37.304;2023-05-07T04:16:16;100182.38;;;0.80;45.24
74913;BME280;63878;55.624;37.304;2023-05-07T04:26:17;100163.78;;;1.20;43.67
74913;BME280;63878;55.624;37.304;2023-05-07T04:36:17;100193.75;;;1.57;43.13
74913;BME280;63878;55.624;37.304;2023-05-07T04:46:18;100201.94;;;2.19;41.44
74913;BME280;63878;55.624;37.304;2023-05-07T04:56:18;100207.81;;;2.01;41.81
74913;BME280;63878;55.624;37.304;2023-05-07T05:06:19;100195.97;;;2.62;39.29
74913;BME280;63878;55.624;37.304;2023-05-07T05:16:19;100206.72;;;2.77;39.31
74913;BME280;63878;55.624;37.304;2023-05-07T05:26:20;100207.31;;;3.48;38.28
74913;BME280;63878;55.624;37.304;2023-05-07T05:36:21;100207.56;;;4.02;35.64
74913;BME280;63878;55.624;37.304;2023-05-07T05:46:21;100225.81;;;2.99;37.57
74913;BME280;63878;55.624;37.304;2023-05-07T05:56:22;100226.63;;;2.56;37.68
74913;BME280;63878;55.624;37.304;2023-05-07T06:06:23;100228.75;;;1.73;38.17
74913;BME280;63878;55.624;37.304;2023-05-07T06:16:24;100231.06;;;2.30;36.82
74913;BME280;63878;55.624;37.304;2023-05-07T06:26:25;100242.88;;;1.66;36.61
74913;BME280;63878;55.624;37.304;2023-05-07T06:36:25;100236.06;;;1.37;37.13
74913;BME280;63878;55.624;37.304;2023-05-07T06:46:27;100230.09;;;1.85;34.51
74913;BME280;63878;55.624;37.304;2023-05-07T06:56:28;100229.84;;;1.41;35.18
74913;BME280;63878;55.624;37.304;2023-05-07T07:06:28;100230.72;;;1.91;34.36
74913;BME280;63878;55.624;37.304;2023-05-07T07:16:28;100195.50;;;2.97;31.87
74913;BME280;63878;55.624;37.304;2023-05-07T07:26:29;100232.31;;;3.53;31.22
74913;BME280;63878;55.624;37.304;2023-05-07T07:36:29;100232.41;;;3.30;32.48
74913;BME280;63878;55.624;37.304;2023-05-07T07:46:30;100218.44;;;2.65;31.39
74913;BME280;63878;55.624;37.304;2023-05-07T07:56:32;100207.94;;;2.67;30.30
74913;BME280;63878;55.624;37.304;2023-05-07T08:06:32;100216.81;;;3.70;29.39
74913;BME280;63878;55.624;37.304;2023-05-07T08:16:33;100221.38;;;3.86;31.04
74913;BME280;63878;55.624;37.304;2023-05-07T08:26:34;100227.59;;;3.63;31.71
74913;BME280;63878;55.624;37.304;2023-05-07T08:36:34;100203.09;;;3.86;32.16
74913;BME280;63878;55.624;37.304;2023-05-07T08:46:35;100206.84;;;4.38;27.78
74913;BME280;63878;55.624;37.304;2023-05-07T08:56:35;100201.00;;;5.94;40.18
74913;BME280;63878;55.624;37.304;2023-05-07T09:06:36;100204.72;;;5.01;33.82
74913;BME280;63878;55.624;37.304;2023-05-07T09:16:37;100215.88;;;2.18;29.59
74913;BME280;63878;55.624;37.304;2023-05-07T09:26:37;100204.94;;;3.63;28.87
74913;BME280;63878;55.624;37.304;2023-05-07T09:36:38;100194.22;;;3.69;26.60
74913;BME280;63878;55.624;37.304;2023-05-07T09:46:42;100200.06;;;3.95;30.86
74913;BME280;63878;55.624;37.304;2023-05-07T09:56:44;100209.88;;;3.90;25.98
74913;BME280;63878;55.624;37.304;2023-05-07T10:06:46;100197.00;;;3.85;25.62
74913;BME280;63878;55.624;37.304;2023-05-07T10:16:47;100202.19;;;2.58;27.40
74913;BME280;63878;55.624;37.304;2023-05-07T10:26:51;100204.31;;;4.37;24.58
74913;BME280;63878;55.624;37.304;2023-05-07T10:36:53;100205.06;;;3.18;26.99
74913;BME280;63878;55.624;37.304;2023-05-07T10:57:34;100203.28;;;4.20;24.76
74913;BME280;63878;55.624;37.304;2023-05-07T11:07:34;100202.84;;;3.51;25.99
74913;BME280;63878;55.624;37.304;2023-05-07T11:17:52;100203.13;;;4.05;24.80
74913;BME280;63878;55.624;37.304;2023-05-07T11:27:54;100191.16;;;4.57;24.13
74913;BME280;63878;55.624;37.304;2023-05-07T11:37:59;100204.09;;;3.83;25.12
74913;BME280;63878;55.624;37.304;2023-05-07T11:48:01;100197.84;;;4.63;23.88
74913;BME280;63878;55.624;37.304;2023-05-07T11:58:04;100203.97;;;4.05;25.13
74913;BME280;63878;55.624;37.304;2023-05-07T12:08:04;100196.25;;;3.63;25.70
74913;BME280;63878;55.624;37.304;2023-05-07T12:18:06;100188.16;;;4.83;29.39
74913;BME280;63878;55.624;37.304;2023-05-07T12:28:07;100195.25;;;4.44;24.37
74913;BME280;63878;55.624;37.304;2023-05-07T12:38:09;100190.72;;;4.66;23.92
74913;BME280;63878;55.624;37.304;2023-05-07T12:48:10;100173.50;;;4.43;24.41
74913;BME280;63878;55.624;37.304;2023-05-07T12:58:19;100185.13;;;4.55;24.18
74913;BME280;63878;55.624;37.304;2023-05-07T13:08:56;100188.41;;;3.83;25.67
74913;BME280;63878;55.624;37.304;2023-05-07T13:18:50;100192.13;;;4.17;25.73
74913;BME280;63878;55.624;37.304;2023-05-07T13:28:50;100184.56;;;4.48;25.92
74913;BME280;63878;55.624;37.304;2023-05-07T13:38:51;100200.03;;;4.15;24.55
74913;BME280;63878;55.624;37.304;2023-05-07T13:48:51;100187.53;;;4.03;25.43
74913;BME280;63878;55.624;37.304;2023-05-07T13:58:52;100197.94;;;4.23;25.32
74913;BME280;63878;55.624;37.304;2023-05-07T14:08:52;100194.66;;;4.56;26.25
74913;BME280;63878;55.624;37.304;2023-05-07T14:18:53;100194.25;;;4.46;26.48
74913;BME280;63878;55.624;37.304;2023-05-07T14:28:54;100182.66;;;5.07;25.83
74913;BME280;63878;55.624;37.304;2023-05-07T14:38:54;100182.88;;;3.89;24.46
74913;BME280;63878;55.624;37.304;2023-05-07T14:48:56;100177.63;;;5.02;29.21
74913;BME280;63878;55.624;37.304;2023-05-07T14:58:57;100174.66;;;4.74;26.45
74913;BME280;63878;55.624;37.304;2023-05-07T15:08:57;100175.19;;;4.99;27.47
74913;BME280;63878;55.624;37.304;2023-05-07T15:18:58;100184.50;;;5.22;23.23
74913;BME280;63878;55.624;37.304;2023-05-07T15:28:59;100183.97;;;3.44;25.57
74913;BME280;63878;55.624;37.304;2023-05-07T15:38:59;100192.97;;;4.17;24.81
74913;BME280;63878;55.624;37.304;2023-05-07T15:49:02;100191.97;;;4.20;24.62
74913;BME280;63878;55.624;37.304;2023-05-07T15:59:02;100201.44;;;3.42;25.80
74913;BME280;63878;55.624;37.304;2023-05-07T16:09:03;100183.09;;;4.24;25.95
74913;BME280;63878;55.624;37.304;2023-05-07T16:19:04;100199.63;;;3.85;25.69
74913;BME280;63878;55.624;37.304;2023-05-07T16:29:04;100194.31;;;3.87;27.01
74913;BME280;63878;55.624;37.304;2023-05-07T16:39:05;100209.59;;;3.55;26.30
74913;BME280;63878;55.624;37.304;2023-05-07T16:49:06;100204.13;;;3.41;26.23
74913;BME280;63878;55.624;37.304;2023-05-07T16:59:07;100229.88;;;3.70;26.77
74913;BME280;63878;55.624;37.304;2023-05-07T17:09:07;100227.03;;;3.95;26.60
74913;BME280;63878;55.624;37.304;2023-05-07T17:19:08;100232.91;;;3.80;26.76
74913;BME280;63878;55.624;37.304;2023-05-07T17:29:08;100238.56;;;3.49;28.45
74913;BME280;63878;55.624;37.304;2023-05-07T17:39:09;100253.31;;;3.28;28.34
74913;BME280;63878;55.624;37.304;2023-05-07T17:49:09;100245.94;;;3.17;28.55
74913;BME280;63878;55.624;37.304;2023-05-07T17:59:10;100254.03;;;2.89;29.40
74913;BME280;63878;55.624;37.304;2023-05-07T18:09:10;100235.97;;;2.38;30.30
74913;BME280;63878;55.624;37.304;2023-05-07T18:19:11;100264.84;;;2.55;30.13
74913;BME280;63878;55.624;37.304;2023-05-07T18:29:11;100269.91;;;2.36;30.26
74913;BME280;63878;55.624;37.304;2023-05-07T18:39:12;100263.59;;;2.19;31.56
74913;BME280;63878;55.624;37.304;2023-05-07T18:49:13;100280.41;;;2.10;31.94
74913;BME280;63878;55.624;37.304;2023-05-07T18:59:15;100278.84;;;1.79;33.11
74913;BME280;63878;55.624;37.304;2023-05-07T19:09:15;100277.09;;;1.80;32.93
74913;BME280;63878;55.624;37.304;2023-05-07T19:19:16;100285.09;;;1.75;33.17
74913;BME280;63878;55.624;37.304;2023-05-07T19:29:17;100286.03;;;1.46;34.36
74913;BME280;63878;55.624;37.304;2023-05-07T19:39:17;100298.81;;;1.26;35.17
74913;BME280;63878;55.624;37.304;2023-05-07T19:49:18;100301.84;;;1.12;36.12
74913;BME280;63878;55.624;37.304;2023-05-07T19:59:18;100315.63;;;1.16;36.82
74913;BME280;63878;55.624;37.304;2023-05-07T20:09:19;100315.75;;;1.11;38.18
74913;BME280;63878;55.624;37.304;2023-05-07T20:19:19;100335.72;;;1.11;36.95
74913;BME280;63878;55.624;37.304;2023-05-07T20:29:21;100326.72;;;1.21;36.13
74913;BME280;63878;55.624;37.304;2023-05-07T20:39:22;100347.31;;;0.99;36.59
74913;BME280;63878;55.624;37.304;2023-05-07T20:49:22;100347.59;;;0.88;36.87
74913;BME280;63878;55.624;37.304;2023-05-07T20:59:24;100357.63;;;0.71;38.50
74913;BME280;63878;55.624;37.304;2023-05-07T21:09:24;100362.94;;;0.66;38.47
74913;BME280;63878;55.624;37.304;2023-05-07T21:19:25;100368.94;;;0.37;39.19
74913;BME280;63878;55.624;37.304;2023-05-07T21:29:25;100387.81;;;0.44;39.21
74913;BME280;63878;55.624;37.304;2023-05-07T21:39:26;100389.38;;;0.51;38.99
74913;BME280;63878;55.624;37.304;2023-05-07T21:49:26;100393.22;;;0.36;39.81
74913;BME280;63878;55.624;37.304;2023-05-07T21:59:27;100395.41;;;0.19;40.42
74913;BME280;63878;55.624;37.304;2023-05-07T22:09:29;100376.88;;;-0.01;40.88
74913;BME280;63878;55.624;37.304;2023-05-07T22:19:29;100395.69;;;0.07;41.13
74913;BME280;63878;55.624;37.304;2023-05-07T22:29:30;100405.53;;;-0.06;41.83
74913;BME280;63878;55.624;37.304;2023-05-07T22:39:31;100386.41;;;-0.38;42.60
74913;BME280;63878;55.624;37.304;2023-05-07T22:49:35;100401.00;;;-0.33;44.05
74913;BME280;63878;55.624;37.304;2023-05-07T22:59:36;100410.78;;;-0.46;44.81
74913;BME280;63878;55.624;37.304;2023-05-07T23:09:36;100403.16;;;-0.52;44.42
74913;BME280;63878;55.624;37.304;2023-05-07T23:19:37;100395.75;;;-0.69;43.94
74913;BME280;63878;55.624;37.304;2023-05-07T23:29:37;100405.50;;;-0.80;44.39
74913;BME280;63878;55.624;37.304;2023-05-07T23:39:38;100404.91;;;-0.93;44.81
74913;BME280;63878;55.624;37.304;2023-05-07T23:49:38;100402.44;;;-0.98;44.59
74913;BME280;63878;55.624;37.304;2023-05-07T23:59:38;100408.47;;;-0.97;45.75
